createdAt,value
2022-12-17T00:02:37.797Z,190.15
2022-12-17T00:05:24.480Z,201.95
2022-12-17T00:08:17.653Z,209.07
2022-12-17T00:11:03.812Z,207.93
2022-12-17T00:13:49.177Z,207.07
2022-12-17T00:16:35.077Z,196.73
2022-12-17T00:19:20.769Z,198.48
2022-12-17T00:22:06.293Z,194.48
2022-12-17T00:24:52.131Z,189.43
2022-12-17T00:27:37.276Z,194.38
2022-12-17T00:30:23.164Z,183.13
2022-12-17T00:33:09.865Z,192.57
2022-12-17T00:35:55.854Z,185.63
2022-12-17T00:38:42.166Z,186.35
2022-12-17T00:41:27.821Z,190.05
2022-12-17T00:44:13.414Z,189.60
2022-12-17T00:46:58.746Z,185.00
2022-12-17T00:49:44.675Z,176.73
2022-12-17T00:52:30.016Z,184.40
2022-12-17T00:55:15.794Z,184.57
2022-12-17T00:58:00.969Z,194.75
2022-12-17T01:00:46.755Z,178.70
2022-12-17T01:03:36.993Z,180.77
2022-12-17T01:09:11.166Z,190.40
2022-12-17T01:11:56.814Z,196.35
2022-12-17T01:14:43.724Z,194.60
2022-12-17T01:17:29.671Z,185.60
2022-12-17T01:20:15.654Z,184.98
2022-12-17T01:23:01.014Z,188.18
2022-12-17T01:25:46.823Z,182.73
2022-12-17T01:28:32.124Z,193.57
2022-12-17T01:31:17.911Z,199.13
2022-12-17T01:34:03.433Z,196.45
2022-12-17T01:36:48.457Z,188.07
2022-12-17T01:39:34.197Z,203.55
2022-12-17T01:42:19.489Z,184.30
2022-12-17T01:45:14.916Z,205.30
2022-12-17T01:48:26.414Z,192.65
2022-12-17T01:51:14.848Z,203.13
2022-12-17T01:54:04.925Z,196.32
2022-12-17T01:56:51.553Z,207.95
2022-12-17T01:59:44.707Z,199.43
2022-12-17T02:02:29.902Z,195.90
2022-12-17T02:05:16.790Z,198.63
2022-12-17T02:08:37.539Z,193.50
2022-12-17T02:11:33.831Z,202.88
2022-12-17T02:14:31.560Z,187.00
2022-12-17T02:17:21.556Z,205.23
2022-12-17T02:20:22.209Z,210.15
2022-12-17T02:23:25.263Z,207.68
2022-12-17T02:26:20.271Z,194.02
2022-12-17T02:29:10.192Z,208.38
2022-12-17T02:31:58.971Z,208.43
2022-12-17T02:34:45.024Z,202.52
2022-12-17T02:37:30.360Z,197.55
2022-12-17T02:40:16.709Z,212.10
2022-12-17T02:43:07.116Z,205.35
2022-12-17T02:45:55.990Z,212.35
2022-12-17T02:48:42.816Z,210.80
2022-12-17T02:51:28.458Z,213.13
2022-12-17T02:54:14.464Z,214.77
2022-12-17T02:56:59.580Z,236.70
2022-12-17T02:59:45.393Z,222.75
2022-12-17T03:02:34.435Z,217.75
2022-12-17T03:05:43.939Z,218.52
2022-12-17T03:08:26.300Z,193.60
2022-12-17T03:11:12.117Z,216.93
2022-12-17T03:13:57.606Z,214.98
2022-12-17T03:16:42.722Z,220.75
2022-12-17T03:19:29.022Z,215.20
2022-12-17T03:22:14.903Z,218.63
2022-12-17T03:25:00.682Z,213.48
2022-12-17T03:27:45.994Z,220.57
2022-12-17T03:30:35.992Z,202.48
2022-12-17T03:33:22.550Z,195.07
2022-12-17T03:36:12.078Z,204.45
2022-12-17T03:38:57.767Z,215.48
2022-12-17T03:41:43.165Z,200.75
2022-12-17T03:44:28.836Z,194.75
2022-12-17T03:47:13.880Z,203.27
2022-12-17T03:49:59.763Z,201.07
2022-12-17T03:52:45.173Z,187.85
2022-12-17T03:55:30.795Z,202.80
2022-12-17T03:58:16.217Z,188.82
2022-12-17T04:01:02.019Z,206.20
2022-12-17T04:03:47.566Z,182.02
2022-12-17T04:06:32.789Z,178.00
2022-12-17T04:09:18.539Z,175.02
2022-12-17T04:12:04.024Z,190.93
2022-12-17T04:14:49.634Z,184.27
2022-12-17T04:17:34.931Z,177.93
2022-12-17T04:20:20.661Z,185.05
2022-12-17T04:23:06.341Z,192.55
2022-12-17T04:25:51.538Z,175.52
2022-12-17T04:28:37.109Z,177.63
2022-12-17T04:31:22.376Z,180.05
2022-12-17T04:34:08.182Z,184.02
2022-12-17T04:36:53.301Z,181.48
2022-12-17T04:39:39.037Z,162.07
2022-12-17T04:42:24.359Z,173.30
2022-12-17T04:45:10.342Z,170.15
2022-12-17T04:47:55.409Z,168.35
2022-12-17T04:50:42.874Z,174.27
2022-12-17T04:53:28.747Z,168.95
2022-12-17T04:56:14.547Z,155.55
2022-12-17T04:59:00.337Z,155.57
2022-12-17T05:01:46.181Z,150.20
2022-12-17T05:04:32.316Z,160.20
2022-12-17T05:07:31.272Z,143.68
2022-12-17T05:10:17.230Z,145.75
2022-12-17T05:13:02.555Z,139.27
2022-12-17T05:15:52.955Z,128.07
2022-12-17T05:18:38.855Z,134.35
2022-12-17T05:21:24.917Z,130.73
2022-12-17T05:24:10.836Z,154.88
2022-12-17T05:26:56.109Z,124.57
2022-12-17T05:29:43.196Z,147.35
2022-12-17T05:32:28.745Z,134.48
2022-12-17T05:35:14.417Z,141.90
2022-12-17T05:37:59.537Z,140.90
2022-12-17T05:40:45.417Z,126.63
2022-12-17T05:43:31.445Z,122.93
2022-12-17T05:46:17.306Z,132.65
2022-12-17T05:49:03.139Z,122.00
2022-12-17T05:51:48.509Z,134.43
2022-12-17T05:54:34.178Z,131.40
2022-12-17T05:57:19.686Z,133.98
2022-12-17T06:00:05.525Z,133.55
2022-12-17T06:02:57.396Z,121.72
2022-12-17T06:05:43.401Z,127.35
2022-12-17T06:08:28.905Z,126.97
2022-12-17T06:11:18.323Z,122.10
2022-12-17T06:14:05.138Z,117.57
2022-12-17T06:16:50.652Z,143.73
2022-12-17T06:19:36.391Z,130.38
2022-12-17T06:22:21.587Z,124.57
2022-12-17T06:25:07.402Z,114.93
2022-12-17T06:27:52.898Z,124.40
2022-12-17T06:30:38.775Z,120.22
2022-12-17T06:33:28.968Z,118.20
2022-12-17T06:36:21.991Z,119.68
2022-12-17T06:39:09.277Z,103.40
2022-12-17T06:42:00.571Z,105.03
2022-12-17T06:44:50.356Z,113.63
2022-12-17T06:47:35.495Z,101.80
2022-12-17T06:50:21.322Z,107.72
2022-12-17T06:53:06.567Z,102.35
2022-12-17T06:55:52.356Z,97.78
2022-12-17T06:58:37.904Z,106.38
2022-12-17T07:01:23.924Z,102.15
2022-12-17T07:04:09.296Z,83.25
2022-12-17T07:06:55.076Z,72.32
2022-12-17T07:09:40.861Z,91.18
2022-12-17T07:12:26.246Z,86.95
2022-12-17T07:15:12.011Z,96.97
2022-12-17T07:17:57.328Z,93.88
2022-12-17T07:20:42.997Z,91.88
2022-12-17T07:23:28.465Z,91.68
2022-12-17T07:26:16.190Z,84.90
2022-12-17T07:29:01.538Z,91.72
2022-12-17T07:31:47.588Z,87.22
2022-12-17T07:34:32.790Z,92.90
2022-12-17T07:37:20.638Z,85.78
2022-12-17T07:40:06.480Z,77.97
2022-12-17T07:42:51.545Z,85.25
2022-12-17T07:45:42.278Z,84.40
2022-12-17T07:48:27.715Z,83.13
2022-12-17T07:51:13.452Z,77.93
2022-12-17T07:53:58.879Z,81.45
2022-12-17T07:56:44.733Z,84.53
2022-12-17T07:59:30.360Z,78.07
2022-12-17T08:02:15.932Z,71.78
2022-12-17T08:05:02.171Z,80.80
2022-12-17T08:07:47.384Z,74.10
2022-12-17T08:10:33.353Z,78.15
2022-12-17T08:13:23.944Z,77.43
2022-12-17T08:16:11.945Z,69.97
2022-12-17T08:18:57.764Z,75.70
2022-12-17T08:21:43.585Z,75.03
2022-12-17T08:24:29.001Z,76.78
2022-12-17T08:27:14.920Z,82.32
2022-12-17T08:29:59.965Z,84.35
2022-12-17T08:32:45.801Z,79.00
2022-12-17T08:35:31.095Z,89.65
2022-12-17T08:38:21.437Z,87.72
2022-12-17T08:41:07.413Z,90.57
2022-12-17T08:43:52.866Z,88.32
2022-12-17T08:46:38.724Z,91.57
2022-12-17T08:49:24.274Z,87.03
2022-12-17T08:52:10.085Z,87.68
2022-12-17T08:54:55.614Z,97.68
2022-12-17T08:57:41.565Z,89.25
2022-12-17T09:00:28.106Z,94.88
2022-12-17T09:03:20.422Z,94.63
2022-12-17T09:06:06.285Z,91.22
2022-12-17T09:08:51.624Z,92.57
2022-12-17T09:11:37.238Z,89.55
2022-12-17T09:14:22.623Z,97.35
2022-12-17T09:17:08.636Z,108.03
2022-12-17T09:19:53.760Z,110.85
2022-12-17T09:22:39.499Z,110.28
2022-12-17T09:25:25.319Z,106.18
2022-12-17T09:28:10.856Z,103.80
2022-12-17T09:30:56.901Z,110.65
2022-12-17T09:33:41.967Z,106.35
2022-12-17T09:36:28.239Z,109.07
2022-12-17T09:39:13.683Z,101.03
2022-12-17T09:42:02.512Z,115.28
2022-12-17T09:45:12.199Z,124.00
2022-12-17T09:48:00.487Z,110.70
2022-12-17T09:50:46.492Z,107.07
2022-12-17T09:53:43.668Z,96.78
2022-12-17T09:56:31.893Z,123.63
2022-12-17T09:59:17.374Z,121.30
2022-12-17T10:02:03.534Z,112.82
2022-12-17T10:04:57.304Z,109.43
2022-12-17T10:07:50.834Z,117.18
2022-12-17T10:10:45.800Z,120.35
2022-12-17T10:13:33.572Z,119.72
2022-12-17T10:16:19.888Z,106.18
2022-12-17T10:19:06.274Z,111.72
2022-12-17T10:21:53.704Z,117.15
2022-12-17T10:24:38.905Z,110.47
2022-12-17T10:27:36.229Z,114.95
2022-12-17T10:30:22.189Z,111.68
2022-12-17T10:33:14.817Z,134.52
2022-12-17T10:36:00.717Z,122.85
2022-12-17T10:38:48.744Z,112.80
2022-12-17T10:41:41.573Z,122.78
2022-12-17T10:44:45.253Z,115.55
2022-12-17T10:47:37.393Z,113.65
2022-12-17T10:50:35.386Z,122.57
2022-12-17T10:53:22.163Z,127.32
2022-12-17T10:56:15.406Z,122.15
2022-12-17T11:01:54.583Z,115.50
2022-12-17T11:05:03.391Z,124.50
2022-12-17T11:08:02.818Z,114.03
2022-12-17T11:10:50.728Z,116.82
2022-12-17T11:13:47.266Z,136.43
2022-12-17T11:16:44.166Z,122.38
2022-12-17T11:19:29.241Z,123.45
2022-12-17T11:22:31.979Z,119.13
2022-12-17T11:25:26.490Z,129.63
2022-12-17T11:28:30.951Z,126.05
2022-12-17T11:31:46.040Z,136.80
2022-12-17T11:34:54.972Z,136.98
2022-12-17T11:38:02.213Z,125.07
2022-12-17T11:40:57.303Z,123.20
2022-12-17T11:44:19.621Z,128.27
2022-12-17T11:47:17.709Z,129.77
2022-12-17T11:50:15.578Z,124.40
2022-12-17T11:53:27.525Z,142.02
2022-12-17T11:56:42.154Z,121.70
2022-12-17T11:59:53.998Z,114.85
2022-12-17T12:02:53.870Z,139.25
2022-12-17T12:06:06.003Z,131.40
2022-12-17T12:09:06.849Z,146.98
2022-12-17T12:12:02.293Z,142.07
2022-12-17T12:14:47.415Z,130.23
2022-12-17T12:18:12.486Z,140.65
2022-12-17T12:21:18.130Z,126.18
2022-12-17T12:24:23.086Z,136.77
2022-12-17T12:27:29.798Z,139.73
2022-12-17T12:30:28.779Z,132.50
2022-12-17T12:33:27.855Z,135.70
2022-12-17T12:36:20.729Z,135.75
2022-12-17T12:39:09.919Z,130.93
2022-12-17T12:42:11.926Z,151.73
2022-12-17T12:45:29.384Z,145.60
2022-12-17T12:48:41.184Z,137.60
2022-12-17T12:51:37.813Z,146.07
2022-12-17T12:54:45.370Z,140.63
2022-12-17T12:57:52.408Z,145.45
2022-12-17T13:00:49.882Z,131.57
2022-12-17T13:03:50.009Z,140.00
2022-12-17T13:06:49.818Z,144.15
2022-12-17T13:09:20.781Z,134.77
2022-12-17T13:12:00.147Z,133.10
2022-12-17T13:14:34.905Z,139.73
2022-12-17T13:17:07.488Z,141.15
2022-12-17T13:19:40.454Z,137.48
2022-12-17T13:22:16.649Z,137.25
2022-12-17T13:24:54.374Z,146.05
2022-12-17T13:27:39.219Z,126.53
2022-12-17T13:30:17.698Z,129.15
2022-12-17T13:33:03.971Z,131.90
2022-12-17T13:35:49.406Z,131.45
2022-12-17T13:38:48.350Z,163.73
2022-12-17T13:41:35.542Z,136.52
2022-12-17T13:44:17.727Z,144.55
2022-12-17T13:46:48.048Z,131.98
2022-12-17T13:49:17.799Z,127.13
2022-12-17T13:51:44.939Z,123.15
2022-12-17T13:54:19.698Z,134.48
2022-12-17T13:56:46.899Z,118.25
2022-12-17T13:59:20.720Z,110.00
2022-12-17T14:01:50.339Z,127.47
2022-12-17T14:04:26.433Z,128.38
2022-12-17T14:06:56.595Z,116.28
2022-12-17T14:09:34.691Z,125.40
2022-12-17T14:12:22.356Z,125.18
2022-12-17T14:14:55.826Z,120.38
2022-12-17T14:17:28.911Z,125.80
2022-12-17T14:20:12.939Z,107.68
2022-12-17T14:22:47.782Z,98.35
2022-12-17T14:25:21.650Z,118.50
2022-12-17T14:27:57.680Z,99.30
2022-12-17T14:31:09.700Z,108.05
2022-12-17T14:33:29.603Z,107.28
2022-12-17T14:35:57.793Z,111.85
2022-12-17T14:38:48.242Z,110.47
2022-12-17T14:41:32.776Z,112.38
2022-12-17T14:44:01.739Z,113.63
2022-12-17T14:46:30.164Z,114.22
2022-12-17T14:49:01.309Z,108.53
2022-12-17T14:51:40.404Z,119.63
2022-12-17T14:54:22.015Z,99.32
2022-12-17T14:56:50.217Z,104.57
2022-12-17T14:59:37.648Z,108.35
2022-12-17T15:02:26.919Z,109.70
2022-12-17T15:04:58.065Z,115.35
2022-12-17T15:07:28.272Z,118.53
2022-12-17T15:09:56.174Z,123.57
2022-12-17T15:12:24.972Z,121.13
2022-12-17T15:14:51.630Z,155.77
2022-12-17T15:17:19.053Z,120.55
2022-12-17T15:19:45.707Z,119.43
2022-12-17T15:22:17.478Z,114.88
2022-12-17T15:24:45.199Z,119.25
2022-12-17T15:27:14.411Z,114.38
2022-12-17T15:29:41.240Z,118.20
2022-12-17T15:32:21.269Z,120.45
2022-12-17T15:34:48.217Z,123.97
2022-12-17T15:37:19.780Z,128.05
2022-12-17T15:39:49.325Z,124.18
2022-12-17T15:42:34.448Z,125.30
2022-12-17T15:45:01.033Z,123.45
2022-12-17T15:47:28.325Z,115.82
2022-12-17T15:49:54.916Z,128.10
2022-12-17T15:52:21.888Z,120.70
2022-12-17T15:54:49.226Z,132.32
2022-12-17T15:57:18.689Z,128.50
2022-12-17T15:59:45.651Z,126.10
2022-12-17T16:02:13.276Z,147.98
2022-12-17T16:04:40.966Z,142.60
2022-12-17T16:07:08.326Z,150.60
2022-12-17T16:09:34.956Z,157.30
2022-12-17T16:12:02.249Z,156.90
2022-12-17T16:14:28.845Z,148.95
2022-12-17T16:16:56.167Z,137.82
2022-12-17T16:19:23.017Z,147.48
2022-12-17T16:21:50.379Z,141.35
2022-12-17T16:24:17.042Z,146.75
2022-12-17T16:26:44.363Z,137.00
2022-12-17T16:29:11.209Z,131.20
2022-12-17T16:31:38.573Z,141.90
2022-12-17T16:34:09.750Z,139.80
2022-12-17T16:36:36.943Z,137.27
2022-12-17T16:39:04.911Z,143.82
2022-12-17T16:41:32.919Z,130.13
2022-12-17T16:44:00.594Z,130.00
2022-12-17T16:46:46.660Z,123.53
2022-12-17T16:49:14.611Z,127.28
2022-12-17T16:51:42.401Z,118.55
2022-12-17T16:54:15.199Z,120.35
2022-12-17T16:56:43.431Z,110.78
2022-12-17T16:59:11.567Z,107.43
2022-12-17T17:01:41.158Z,113.75
2022-12-17T17:04:09.498Z,116.35
2022-12-17T17:06:41.928Z,115.28
2022-12-17T17:09:09.039Z,85.97
2022-12-17T17:11:36.488Z,111.38
2022-12-17T17:14:04.087Z,110.70
2022-12-17T17:16:31.648Z,121.53
2022-12-17T17:18:58.412Z,129.75
2022-12-17T17:21:31.748Z,108.45
2022-12-17T17:24:04.073Z,108.55
2022-12-17T17:28:59.743Z,121.75
2022-12-17T17:32:01.147Z,116.22
2022-12-17T17:34:15.049Z,102.47
2022-12-17T17:36:42.305Z,107.97
2022-12-17T17:39:09.374Z,104.18
2022-12-17T17:41:36.886Z,101.57
2022-12-17T17:44:06.088Z,112.55
2022-12-17T17:46:33.370Z,116.45
2022-12-17T17:49:02.538Z,142.80
2022-12-17T17:52:08.005Z,150.85
2022-12-17T17:54:20.827Z,127.18
2022-12-17T17:56:47.552Z,117.63
2022-12-17T17:59:19.024Z,108.95
2022-12-17T18:01:50.855Z,138.80
2022-12-17T18:04:21.053Z,137.57
2022-12-17T18:07:16.513Z,150.32
2022-12-17T18:09:36.113Z,136.13
2022-12-17T18:12:23.459Z,155.73
2022-12-17T18:15:13.141Z,142.30
2022-12-17T18:17:36.809Z,153.48
2022-12-17T18:20:03.923Z,142.32
2022-12-17T18:22:31.200Z,129.18
2022-12-17T18:24:57.777Z,110.07
2022-12-17T18:27:24.732Z,113.90
2022-12-17T18:29:51.329Z,109.60
2022-12-17T18:32:17.932Z,108.43
2022-12-17T18:34:45.255Z,109.88
2022-12-17T18:37:11.913Z,103.75
2022-12-17T18:39:38.605Z,103.85
2022-12-17T18:42:24.419Z,110.55
2022-12-17T18:44:50.997Z,91.90
2022-12-17T18:47:18.628Z,101.63
2022-12-17T18:49:45.965Z,99.10
2022-12-17T18:52:16.754Z,93.80
2022-12-17T18:54:45.127Z,103.15
2022-12-17T18:57:12.006Z,103.75
2022-12-17T18:59:41.352Z,96.00
2022-12-17T19:02:15.400Z,95.35
2022-12-17T19:04:43.084Z,99.03
2022-12-17T19:07:10.439Z,102.90
2022-12-17T19:09:40.583Z,103.50
2022-12-17T19:30:17.927Z,101.43
2022-12-17T19:32:44.947Z,95.88
2022-12-17T19:35:11.729Z,107.63
2022-12-17T19:37:38.964Z,93.82
2022-12-17T19:40:06.072Z,94.65
2022-12-17T19:42:37.411Z,88.05
2022-12-17T19:45:07.574Z,98.83
2022-12-17T19:47:36.768Z,94.07
2022-12-17T19:50:03.935Z,85.68
2022-12-17T19:52:31.259Z,89.28
2022-12-17T19:54:57.845Z,97.35
2022-12-17T19:57:24.779Z,84.75
2022-12-17T20:03:15.393Z,76.55
2022-12-17T20:05:46.018Z,83.15
2022-12-17T20:08:15.057Z,92.47
2022-12-17T20:10:44.783Z,61.67
2022-12-17T20:13:12.306Z,133.38
2022-12-17T20:15:38.964Z,148.13
2022-12-17T20:18:06.359Z,109.55
2022-12-17T20:20:33.183Z,86.72
2022-12-17T20:23:00.499Z,69.80
2022-12-17T20:25:27.091Z,76.80
2022-12-17T20:28:00.515Z,80.78
2022-12-17T20:30:47.960Z,71.00
2022-12-17T20:33:26.455Z,73.18
2022-12-17T20:36:26.908Z,67.47
2022-12-17T20:39:28.199Z,72.82
2022-12-17T20:41:56.656Z,78.35
2022-12-17T20:44:24.137Z,84.43
2022-12-17T20:46:50.783Z,80.38
2022-12-17T20:49:18.047Z,77.05
2022-12-17T20:51:44.837Z,74.82
2022-12-17T20:54:12.276Z,76.88
2022-12-17T20:56:39.941Z,81.43
2022-12-17T20:59:09.424Z,73.35
2022-12-17T21:01:37.500Z,68.63
2022-12-17T21:04:07.596Z,74.55
2022-12-17T21:06:45.246Z,62.88
2022-12-17T21:09:15.326Z,76.10
2022-12-17T21:11:42.601Z,74.10
2022-12-17T21:14:16.535Z,70.32
2022-12-17T21:16:43.752Z,68.40
2022-12-17T21:19:15.524Z,66.70
2022-12-17T21:21:42.666Z,64.05
2022-12-17T21:24:10.514Z,69.55
2022-12-17T21:26:42.817Z,68.35
2022-12-17T21:31:43.686Z,68.25
2022-12-17T21:34:21.839Z,59.45
2022-12-17T21:36:50.087Z,71.05
2022-12-17T21:39:18.954Z,71.13
2022-12-17T21:42:08.292Z,72.68
2022-12-17T21:44:36.641Z,63.78
2022-12-17T21:47:03.443Z,74.63
2022-12-17T21:49:30.785Z,72.47
2022-12-17T21:51:59.363Z,73.35
2022-12-17T21:54:27.327Z,75.88
2022-12-17T21:56:54.143Z,71.18
2022-12-17T21:59:21.563Z,76.55
2022-12-17T22:01:48.944Z,74.43
2022-12-17T22:04:16.707Z,93.28
2022-12-17T22:06:50.849Z,91.70
2022-12-17T22:09:31.557Z,69.38
2022-12-17T22:12:28.419Z,68.13
2022-12-17T22:14:55.868Z,66.20
2022-12-17T22:17:23.183Z,62.90
2022-12-17T22:19:50.750Z,66.53
2022-12-17T22:22:17.483Z,59.88
2022-12-17T22:24:44.905Z,68.72
2022-12-17T22:27:11.777Z,63.05
2022-12-17T22:29:57.438Z,63.05
2022-12-17T22:32:42.791Z,63.97
2022-12-17T22:37:23.674Z,62.70
2022-12-17T22:43:00.817Z,68.95
2022-12-17T22:44:29.269Z,66.07
2022-12-17T22:44:45.326Z,61.80
2022-12-17T22:46:19.837Z,66.30
2022-12-17T22:48:46.874Z,61.72
2022-12-17T22:51:16.281Z,62.72
2022-12-17T22:53:48.550Z,65.15
2022-12-17T22:56:22.220Z,64.45
2022-12-17T22:59:03.226Z,66.85
2022-12-17T23:01:30.222Z,69.13
2022-12-17T23:03:59.784Z,62.28
2022-12-17T23:06:26.648Z,70.32
2022-12-17T23:08:54.628Z,60.58
2022-12-17T23:11:24.286Z,60.95
2022-12-17T23:13:52.354Z,59.67
2022-12-17T23:16:19.580Z,59.15
2022-12-17T23:18:48.705Z,54.05
2022-12-17T23:21:23.750Z,55.22
2022-12-17T23:23:52.556Z,60.80
2022-12-17T23:26:29.174Z,60.95
2022-12-17T23:28:59.374Z,57.55
2022-12-17T23:31:28.489Z,66.63
2022-12-17T23:33:55.846Z,54.33
2022-12-17T23:36:24.019Z,62.10
2022-12-17T23:38:54.257Z,58.95
2022-12-17T23:41:23.731Z,61.28
2022-12-17T23:43:51.112Z,58.65
2022-12-17T23:46:18.576Z,50.92
2022-12-17T23:48:47.187Z,54.58
2022-12-17T23:51:16.367Z,55.08
2022-12-17T23:53:43.929Z,52.42
2022-12-17T23:56:21.851Z,49.22
2022-12-17T23:58:52.604Z,51.80
